Time;durP1;ratioP1;P1;durP2;ratioP2;P2;SDS_P1;SDS_P2;PMS_P1;PMS_P2;Temp;Humidity;BMP_temperature;BMP_pressure;BME280_temperature;BME280_humidity;BME280_pressure;Samples;Min_cycle;Max_cycle;Signal;HPM_P1;HPM_P2
2021/12/10 00:01:41;;;;;;;;;;;;;;;9.77;47.56;98447.34;4453384;32;35015;-73
2021/12/10 00:04:09;;;;;;;;;;;;;;;8.73;50.38;98444.22;4453962;32;33671;-73
2021/12/10 00:06:38;;;;;;;;;;;;;;;9.30;48.92;98442.66;4458889;32;34232;-74
2021/12/10 00:09:09;;;;;;;;;;;;;;;9.87;47.36;98436.63;4464880;32;34448;-73
2021/12/10 00:12:06;;;;;;;;;;;;;;;9.82;47.69;98445.06;4457857;32;34432;-74
2021/12/10 00:14:34;;;;;;;;;;;;;;;9.73;48.23;98449.44;4458723;32;33372;-74
2021/12/10 00:17:03;;;;;;;;;;;;;;;8.62;51.09;98429.13;4458929;32;32472;-77
2021/12/10 00:19:41;;;;;;;;;;;;;;;9.19;49.84;98424.09;4459365;32;35173;-74
2021/12/10 00:22:10;;;;;;;;;;;;;;;9.13;49.48;98437.16;4457543;32;32768;-74
2021/12/10 00:24:38;;;;;;;;;;;;;;;9.66;48.27;98440.31;4453865;32;33609;-73
2021/12/10 00:27:08;;;;;;;;;;;;;;;9.81;47.02;98454.06;4453413;32;34467;-76
2021/12/10 00:29:38;;;;;;;;;;;;;;;9.74;47.55;98452.97;4460400;32;34944;-76
2021/12/10 00:32:14;;;;;;;;;;;;;;;9.98;47.15;98466.75;4456152;32;34369;-75
2021/12/10 00:34:47;;;;;;;;;;;;;;;9.48;48.02;98461.53;4461606;32;32701;-79
2021/12/10 00:37:15;;;;;;;;;;;;;;;9.65;48.54;98464.50;4455964;32;31906;-72
2021/12/10 00:39:48;;;;;;;;;;;;;;;9.49;48.54;98457.03;4461942;32;33719;-69
2021/12/10 00:42:17;;;;;;;;;;;;;;;9.18;49.20;98464.28;4458327;32;35734;-69
2021/12/10 00:44:46;;;;;;;;;;;;;;;9.55;49.06;98464.47;4466673;32;33783;-69
2021/12/10 00:47:13;;;;;;;;;;;;;;;10.09;46.67;98464.91;4469744;32;33966;-67
2021/12/10 00:49:41;;;;;;;;;;;;;;;9.93;47.32;98468.16;4470866;32;32961;-70
2021/12/10 00:52:09;;;;;;;;;;;;;;;9.86;47.94;98467.88;4471480;32;32942;-72
2021/12/10 00:54:36;;;;;;;;;;;;;;;9.92;47.65;98455.75;4477586;32;34511;-72
2021/12/10 00:57:05;;;;;;;;;;;;;;;10.02;47.52;98461.97;4470143;32;35129;-72
2021/12/10 00:59:32;;;;;;;;;;;;;;;10.17;47.07;98465.00;4470690;32;33873;-70
2021/12/10 01:02:00;;;;;;;;;;;;;;;9.85;47.85;98463.50;4468282;32;34538;-70
2021/12/10 01:04:29;;;;;;;;;;;;;;;10.12;47.00;98467.28;4473784;32;34110;-73
2021/12/10 01:06:57;;;;;;;;;;;;;;;10.64;45.59;98457.88;4474237;32;33976;-70
2021/12/10 01:09:26;;;;;;;;;;;;;;;10.71;45.24;98461.66;4473770;32;34328;-70
2021/12/10 01:12:02;;;;;;;;;;;;;;;10.89;44.97;98459.06;4468607;32;33431;-71
2021/12/10 01:15:20;;;;;;;;;;;;;;;11.03;44.65;98455.03;4473926;32;34519;-70
2021/12/10 01:26:11;;;;;;;;;;;;;;;11.39;43.45;98442.53;4470904;32;32411;-70
2021/12/10 01:28:35;;;;;;;;;;;;;;;11.21;43.65;98452.41;4472103;32;33883;-69
2021/12/10 01:31:04;;;;;;;;;;;;;;;10.63;44.69;98455.38;4468955;32;34100;-70
2021/12/10 01:33:31;;;;;;;;;;;;;;;11.15;43.68;98461.03;4467876;32;35530;-70
2021/12/10 01:36:00;;;;;;;;;;;;;;;10.91;44.41;98453.53;4475236;32;34502;-71
2021/12/10 01:38:28;;;;;;;;;;;;;;;10.91;44.46;98462.44;4472239;32;34281;-70
2021/12/10 01:40:58;;;;;;;;;;;;;;;10.69;45.19;98470.84;4472763;32;33734;-70
2021/12/10 01:43:26;;;;;;;;;;;;;;;10.83;44.59;98475.69;4476725;32;33779;-74
2021/12/10 01:45:56;;;;;;;;;;;;;;;11.02;44.10;98472.09;4472767;32;34371;-69
2021/12/10 01:48:33;;;;;;;;;;;;;;;10.68;44.28;98466.47;4476978;32;34151;-73
2021/12/10 01:51:00;;;;;;;;;;;;;;;10.16;46.26;98461.50;4474418;32;34132;-70
2021/12/10 01:53:29;;;;;;;;;;;;;;;10.33;45.84;98465.28;4472999;32;33273;-73
2021/12/10 01:55:57;;;;;;;;;;;;;;;10.01;46.97;98469.09;4469879;32;33064;-71
2021/12/10 01:58:25;;;;;;;;;;;;;;;10.54;45.17;98461.59;4473002;32;34181;-70
2021/12/10 02:01:15;;;;;;;;;;;;;;;10.78;44.45;98461.91;4468520;32;35337;-70
2021/12/10 02:03:44;;;;;;;;;;;;;;;10.86;44.20;98463.88;4476958;32;34367;-70
2021/12/10 02:06:11;;;;;;;;;;;;;;;10.58;45.01;98463.81;4474891;32;34451;-73
2021/12/10 02:08:39;;;;;;;;;;;;;;;10.87;43.96;98460.19;4473521;32;34031;-70
2021/12/10 02:11:07;;;;;;;;;;;;;;;10.51;45.07;98461.87;4470146;32;33140;-68
2021/12/10 02:13:35;;;;;;;;;;;;;;;10.64;44.89;98460.56;4470529;32;34522;-71
2021/12/10 02:16:03;;;;;;;;;;;;;;;10.59;44.43;98472.69;4471195;32;34027;-73
2021/12/10 02:18:31;;;;;;;;;;;;;;;10.67;44.36;98462.94;4477485;32;32758;-72
2021/12/10 02:21:01;;;;;;;;;;;;;;;10.61;45.23;98458.19;4473761;32;34202;-70
2021/12/10 02:23:33;;;;;;;;;;;;;;;10.66;44.34;98463.94;4475035;32;33561;-71
2021/12/10 02:26:01;;;;;;;;;;;;;;;10.92;44.02;98469.47;4471769;32;33366;-69
2021/12/10 02:28:28;;;;;;;;;;;;;;;10.97;43.57;98469.00;4472965;32;34873;-70
2021/12/10 02:30:56;;;;;;;;;;;;;;;10.68;43.94;98466.47;4475498;32;35495;-70
2021/12/10 02:33:24;;;;;;;;;;;;;;;10.66;43.82;98468.47;4461275;32;33942;-71
2021/12/10 02:35:51;;;;;;;;;;;;;;;10.74;43.92;98476.59;4471504;32;33264;-71
2021/12/10 02:38:20;;;;;;;;;;;;;;;10.31;45.50;98483.34;4468225;32;34448;-70
2021/12/10 02:40:49;;;;;;;;;;;;;;;10.37;44.90;98477.41;4468557;32;34795;-71
2021/12/10 02:43:17;;;;;;;;;;;;;;;10.18;46.29;98474.75;4474606;32;34200;-69
2021/12/10 02:45:46;;;;;;;;;;;;;;;10.35;44.68;98484.72;4475709;32;33833;-71
2021/12/10 02:48:13;;;;;;;;;;;;;;;10.24;46.05;98480.34;4458427;32;33841;-72
2021/12/10 02:50:43;;;;;;;;;;;;;;;10.03;45.70;98480.50;4475096;32;33099;-73
2021/12/10 02:53:11;;;;;;;;;;;;;;;10.07;45.37;98480.22;4469958;32;35472;-72
2021/12/10 02:55:38;;;;;;;;;;;;;;;10.16;45.94;98466.84;4472394;32;33675;-73
2021/12/10 02:58:09;;;;;;;;;;;;;;;10.24;45.21;98468.78;4477236;32;35208;-71
2021/12/10 03:00:39;;;;;;;;;;;;;;;10.35;44.90;98474.03;4476646;32;34547;-73
2021/12/10 03:03:07;;;;;;;;;;;;;;;10.58;44.25;98460.31;4470286;32;35418;-72
2021/12/10 03:05:34;;;;;;;;;;;;;;;10.67;43.47;98456.75;4481326;32;31706;-70
2021/12/10 03:08:02;;;;;;;;;;;;;;;10.66;43.85;98453.25;4464050;32;34019;-72
2021/12/10 03:10:30;;;;;;;;;;;;;;;10.71;43.25;98467.00;4468347;32;35166;-70
2021/12/10 03:12:57;;;;;;;;;;;;;;;9.86;45.63;98473.22;4468477;32;33247;-70
2021/12/10 03:15:25;;;;;;;;;;;;;;;9.91;44.87;98468.28;4477523;32;33644;-69
2021/12/10 03:17:53;;;;;;;;;;;;;;;9.82;45.82;98466.44;4470061;32;35112;-70
2021/12/10 03:20:21;;;;;;;;;;;;;;;9.59;46.69;98457.88;4472949;32;34027;-71
2021/12/10 03:22:49;;;;;;;;;;;;;;;9.82;46.44;98455.75;4472442;32;34194;-70
2021/12/10 03:25:16;;;;;;;;;;;;;;;10.08;45.12;98456.03;4471151;32;33450;-70
2021/12/10 03:27:44;;;;;;;;;;;;;;;9.69;45.16;98456.03;4469239;32;35144;-70
2021/12/10 03:30:13;;;;;;;;;;;;;;;9.64;45.19;98460.97;4457111;32;34319;-72
2021/12/10 03:32:41;;;;;;;;;;;;;;;9.45;46.56;98474.31;4477020;32;32096;-70
2021/12/10 03:35:14;;;;;;;;;;;;;;;9.30;46.04;98476.53;4469258;32;33023;-72
2021/12/10 03:37:42;;;;;;;;;;;;;;;9.01;48.66;98477.28;4465892;32;34126;-70
2021/12/10 03:40:11;;;;;;;;;;;;;;;9.21;46.76;98470.22;4464917;32;34053;-71
2021/12/10 03:42:38;;;;;;;;;;;;;;;9.38;46.71;98483.87;4465640;32;34474;-71
2021/12/10 03:45:07;;;;;;;;;;;;;;;9.54;47.53;98478.84;4466936;32;33248;-72
2021/12/10 03:47:34;;;;;;;;;;;;;;;9.69;45.68;98482.75;4464197;32;33971;-75
2021/12/10 03:50:03;;;;;;;;;;;;;;;9.53;46.41;98475.31;4460727;32;34289;-73
2021/12/10 03:52:31;;;;;;;;;;;;;;;9.45;46.44;98474.31;4455211;32;35201;-73
2021/12/10 03:55:00;;;;;;;;;;;;;;;9.46;47.98;98476.00;4460148;32;34678;-77
2021/12/10 03:57:27;;;;;;;;;;;;;;;9.77;45.91;98482.06;4473124;32;35054;-72
2021/12/10 03:59:55;;;;;;;;;;;;;;;9.98;44.77;98485.47;4453034;32;34086;-75
2021/12/10 04:02:22;;;;;;;;;;;;;;;10.00;45.64;98490.66;4466342;32;35870;-74
2021/12/10 04:04:50;;;;;;;;;;;;;;;10.35;44.42;98489.22;4450048;32;33874;-74
2021/12/10 04:07:19;;;;;;;;;;;;;;;10.45;44.37;98484.69;4464485;32;32835;-74
2021/12/10 04:09:46;;;;;;;;;;;;;;;10.28;44.32;98480.94;4458724;32;33129;-70
2021/12/10 04:12:14;;;;;;;;;;;;;;;10.16;45.08;98482.06;4474902;32;34198;-71
2021/12/10 04:14:43;;;;;;;;;;;;;;;10.65;43.02;98485.47;4452349;32;33568;-73
2021/12/10 04:17:10;;;;;;;;;;;;;;;10.76;43.19;98482.66;4469518;32;33871;-72
2021/12/10 04:19:38;;;;;;;;;;;;;;;10.70;43.27;98489.41;4452998;32;35466;-75
2021/12/10 04:22:06;;;;;;;;;;;;;;;10.83;42.95;98494.44;4465041;32;34808;-74
2021/12/10 04:24:34;;;;;;;;;;;;;;;10.96;43.19;98499.47;4455972;32;33730;-74
2021/12/10 04:27:03;;;;;;;;;;;;;;;11.07;41.84;98509.97;4463772;32;34241;-70
2021/12/10 04:29:30;;;;;;;;;;;;;;;10.93;42.54;98505.94;4462368;32;34335;-75
2021/12/10 04:31:58;;;;;;;;;;;;;;;10.90;42.62;98503.56;4466935;32;34313;-70
2021/12/10 04:34:26;;;;;;;;;;;;;;;11.04;41.92;98501.38;4471509;32;34071;-71
2021/12/10 04:36:53;;;;;;;;;;;;;;;10.87;42.11;98506.53;4466175;32;34325;-71
2021/12/10 04:39:21;;;;;;;;;;;;;;;11.03;41.83;98513.09;4478286;32;34284;-71
2021/12/10 04:41:48;;;;;;;;;;;;;;;11.12;41.49;98510.38;4471274;32;34031;-71
2021/12/10 04:44:15;;;;;;;;;;;;;;;11.16;41.73;98519.78;4465707;32;33654;-71
2021/12/10 04:46:43;;;;;;;;;;;;;;;11.21;41.22;98519.38;4465351;32;35162;-74
2021/12/10 04:49:14;;;;;;;;;;;;;;;11.28;41.54;98523.13;4472488;32;34360;-71
2021/12/10 04:51:45;;;;;;;;;;;;;;;11.33;41.08;98515.50;4455300;32;34313;-72
2021/12/10 04:54:13;;;;;;;;;;;;;;;11.39;41.13;98525.59;4461016;32;33406;-71
2021/12/10 04:56:41;;;;;;;;;;;;;;;11.51;40.54;98526.25;4467612;32;34307;-71
2021/12/10 04:59:09;;;;;;;;;;;;;;;11.30;40.97;98534.56;4460906;32;34401;-71
2021/12/10 05:01:37;;;;;;;;;;;;;;;11.45;40.47;98547.44;4470817;32;34394;-75
2021/12/10 05:04:07;;;;;;;;;;;;;;;11.18;41.13;98559.84;4459732;32;34449;-74
2021/12/10 05:06:34;;;;;;;;;;;;;;;11.30;41.02;98555.97;4474677;32;34283;-72
2021/12/10 05:09:03;;;;;;;;;;;;;;;11.25;41.18;98560.94;4473495;32;34340;-71
2021/12/10 05:11:30;;;;;;;;;;;;;;;11.22;41.47;98547.81;4477898;32;34139;-71
2021/12/10 05:13:57;;;;;;;;;;;;;;;11.38;40.72;98552.53;4468972;32;32919;-71
2021/12/10 05:16:26;;;;;;;;;;;;;;;11.11;42.36;98548.03;4461406;32;34166;-73
2021/12/10 05:18:57;;;;;;;;;;;;;;;11.40;41.30;98545.22;4460857;32;34318;-74
2021/12/10 05:21:28;;;;;;;;;;;;;;;11.48;40.95;98542.63;4454127;32;34206;-72
2021/12/10 05:23:55;;;;;;;;;;;;;;;11.53;40.80;98548.38;4468990;32;33548;-72
2021/12/10 05:26:22;;;;;;;;;;;;;;;11.40;41.54;98556.78;4473054;32;34062;-73
2021/12/10 05:28:50;;;;;;;;;;;;;;;11.55;41.22;98553.56;4468199;32;34224;-76
2021/12/10 05:31:17;;;;;;;;;;;;;;;11.68;40.70;98547.84;4457875;32;32909;-73
2021/12/10 05:33:45;;;;;;;;;;;;;;;11.56;41.25;98539.22;4468606;32;32335;-74
2021/12/10 05:36:13;;;;;;;;;;;;;;;11.36;42.04;98539.31;4462781;32;35263;-75
2021/12/10 05:38:40;;;;;;;;;;;;;;;11.62;40.63;98550.16;4473067;32;35213;-75
2021/12/10 05:41:10;;;;;;;;;;;;;;;11.74;40.32;98556.12;4476245;32;34430;-72
2021/12/10 05:43:38;;;;;;;;;;;;;;;11.78;40.41;98557.53;4455441;32;33267;-76
2021/12/10 05:46:06;;;;;;;;;;;;;;;11.83;40.53;98555.22;4459703;32;33010;-73
2021/12/10 05:48:33;;;;;;;;;;;;;;;11.87;40.65;98553.13;4468773;32;35309;-70
2021/12/10 05:51:01;;;;;;;;;;;;;;;11.47;42.06;98548.13;4467331;32;34560;-74
2021/12/10 05:53:28;;;;;;;;;;;;;;;11.72;41.29;98541.19;4440409;32;33821;-77
2021/12/10 05:55:55;;;;;;;;;;;;;;;11.98;40.77;98549.41;4459570;32;33823;-77
2021/12/10 05:58:23;;;;;;;;;;;;;;;12.22;39.59;98549.59;4455628;32;33820;-73
2021/12/10 06:00:52;;;;;;;;;;;;;;;12.11;40.22;98542.63;4464946;32;35682;-71
2021/12/10 06:03:22;;;;;;;;;;;;;;;12.41;39.52;98540.53;4470363;32;32160;-74
2021/12/10 06:05:50;;;;;;;;;;;;;;;12.43;39.58;98537.72;4471014;32;35337;-74
2021/12/10 06:08:17;;;;;;;;;;;;;;;12.17;40.30;98527.78;4475050;32;33058;-82
2021/12/10 06:10:45;;;;;;;;;;;;;;;12.26;40.42;98517.94;4460285;32;35000;-83
2021/12/10 06:13:13;;;;;;;;;;;;;;;12.71;39.35;98519.59;4450162;32;32375;-78
2021/12/10 06:15:40;;;;;;;;;;;;;;;12.78;39.11;98526.06;4465194;32;35102;-74
2021/12/10 06:18:08;;;;;;;;;;;;;;;12.85;38.77;98526.25;4474535;32;34371;-73
2021/12/10 06:20:37;;;;;;;;;;;;;;;12.53;39.81;98520.50;4459282;32;34307;-74
2021/12/10 06:23:05;;;;;;;;;;;;;;;12.98;38.35;98515.91;4472213;32;34123;-76
2021/12/10 06:25:33;;;;;;;;;;;;;;;13.06;38.04;98513.25;4460064;32;33919;-74
2021/12/10 06:28:00;;;;;;;;;;;;;;;12.91;38.44;98509.50;4473448;32;35537;-74
2021/12/10 06:30:31;;;;;;;;;;;;;;;13.16;37.76;98511.31;4474754;32;34338;-74
2021/12/10 06:32:59;;;;;;;;;;;;;;;13.22;37.46;98509.81;4468539;32;32863;-74
2021/12/10 06:35:27;;;;;;;;;;;;;;;13.06;38.33;98499.81;4475577;32;35013;-73
2021/12/10 06:37:55;;;;;;;;;;;;;;;12.85;38.86;98502.09;4469885;32;34436;-71
2021/12/10 06:40:26;;;;;;;;;;;;;;;13.33;37.30;98503.34;4478950;32;33737;-73
2021/12/10 06:42:54;;;;;;;;;;;;;;;12.99;38.21;98506.84;4474821;32;34415;-72
2021/12/10 06:45:22;;;;;;;;;;;;;;;13.08;37.90;98515.81;4470573;32;34111;-75
2021/12/10 06:47:51;;;;;;;;;;;;;;;13.19;37.65;98513.69;4474745;32;34098;-72
2021/12/10 06:50:19;;;;;;;;;;;;;;;13.20;37.97;98514.53;4468593;32;35143;-74
2021/12/10 06:52:46;;;;;;;;;;;;;;;13.28;37.96;98512.72;4467990;32;33660;-71
2021/12/10 06:55:14;;;;;;;;;;;;;;;13.21;37.79;98516.19;4470795;32;34149;-73
2021/12/10 06:57:42;;;;;;;;;;;;;;;13.44;36.84;98521.84;4477800;32;35197;-77
2021/12/10 07:00:11;;;;;;;;;;;;;;;13.40;37.50;98528.56;4470447;32;34367;-77
2021/12/10 07:02:39;;;;;;;;;;;;;;;13.46;36.91;98528.75;4464127;32;33743;-75
2021/12/10 07:05:07;;;;;;;;;;;;;;;13.46;36.79;98530.59;4459173;32;35066;-79
2021/12/10 07:07:36;;;;;;;;;;;;;;;13.17;37.85;98528.28;4461588;32;34372;-77
2021/12/10 07:10:05;;;;;;;;;;;;;;;13.48;36.76;98521.38;4479274;32;34487;-75
2021/12/10 07:12:37;;;;;;;;;;;;;;;13.64;37.09;98528.66;4463791;32;33681;-75
2021/12/10 07:15:06;;;;;;;;;;;;;;;13.90;36.79;98530.37;4473767;32;33876;-81
2021/12/10 07:17:34;;;;;;;;;;;;;;;14.05;36.63;98520.66;4472335;32;34434;-77
2021/12/10 07:20:02;;;;;;;;;;;;;;;14.02;36.44;98522.84;4457264;32;34446;-77
2021/12/10 07:22:29;;;;;;;;;;;;;;;13.77;37.12;98524.63;4459533;32;33613;-75
2021/12/10 07:24:57;;;;;;;;;;;;;;;13.80;37.13;98514.37;4475724;32;34193;-80
2021/12/10 07:27:24;;;;;;;;;;;;;;;14.19;36.14;98513.78;4478122;32;34152;-75
2021/12/10 07:29:52;;;;;;;;;;;;;;;14.19;35.76;98514.63;4455776;32;31670;-75
2021/12/10 07:32:19;;;;;;;;;;;;;;;14.03;36.07;98516.44;4457919;32;34565;-78
2021/12/10 07:34:46;;;;;;;;;;;;;;;14.11;35.64;98511.91;4475168;32;34152;-76
2021/12/10 07:37:14;;;;;;;;;;;;;;;14.08;35.54;98506.87;4476457;32;32849;-75
2021/12/10 07:39:41;;;;;;;;;;;;;;;13.88;36.53;98494.75;4459953;32;34661;-77
2021/12/10 07:42:09;;;;;;;;;;;;;;;13.96;36.45;98495.59;4476263;32;32465;-78
2021/12/10 07:44:37;;;;;;;;;;;;;;;13.89;36.74;98491.87;4475928;32;35005;-76
2021/12/10 07:47:08;;;;;;;;;;;;;;;14.02;36.08;98495.94;4461628;32;33684;-77
2021/12/10 07:49:38;;;;;;;;;;;;;;;13.85;36.27;98498.59;4475134;32;35450;-76
2021/12/10 07:52:08;;;;;;;;;;;;;;;14.00;35.63;98488.03;4466315;32;33592;-76
2021/12/10 07:54:35;;;;;;;;;;;;;;;13.86;36.38;98483.31;4459582;32;34386;-80
2021/12/10 07:57:03;;;;;;;;;;;;;;;13.55;37.25;98475.88;4459058;32;34214;-77
2021/12/10 07:59:30;;;;;;;;;;;;;;;13.56;37.26;98461.41;4457107;32;33692;-76
2021/12/10 08:01:57;;;;;;;;;;;;;;;13.83;36.80;98467.50;4447150;32;34474;-77
2021/12/10 08:04:25;;;;;;;;;;;;;;;14.26;36.37;98450.19;4463106;32;34207;-77
2021/12/10 08:06:53;;;;;;;;;;;;;;;14.37;36.30;98455.22;4473772;32;35324;-77
2021/12/10 08:09:20;;;;;;;;;;;;;;;14.26;36.72;98452.06;4472429;32;35385;-77
2021/12/10 08:11:48;;;;;;;;;;;;;;;14.42;36.20;98454.72;4457215;32;33589;-78
2021/12/10 08:14:15;;;;;;;;;;;;;;;14.03;36.78;98458.12;4450657;32;33983;-80
2021/12/10 08:16:43;;;;;;;;;;;;;;;14.07;36.58;98459.44;4465954;32;34399;-76
2021/12/10 08:19:12;;;;;;;;;;;;;;;13.61;37.30;98466.28;4453936;32;34503;-76
2021/12/10 08:21:41;;;;;;;;;;;;;;;14.06;36.56;98465.84;4463334;32;34554;-76
2021/12/10 08:24:09;;;;;;;;;;;;;;;13.38;37.72;98468.75;4477391;32;33968;-79
2021/12/10 08:26:36;;;;;;;;;;;;;;;13.54;37.71;98479.53;4472281;32;35429;-77
2021/12/10 08:29:04;;;;;;;;;;;;;;;13.49;37.79;98477.37;4466978;32;35295;-80
2021/12/10 08:31:32;;;;;;;;;;;;;;;13.74;37.07;98475.56;4473310;32;33645;-78
2021/12/10 08:33:59;;;;;;;;;;;;;;;13.56;37.75;98487.47;4463234;32;34121;-77
2021/12/10 08:36:28;;;;;;;;;;;;;;;13.58;37.70;98491.69;4477518;32;35324;-76
2021/12/10 08:38:56;;;;;;;;;;;;;;;13.26;37.64;98485.19;4473728;32;34976;-76
2021/12/10 08:41:25;;;;;;;;;;;;;;;13.08;38.10;98488.94;4456339;32;34217;-78
2021/12/10 08:43:56;;;;;;;;;;;;;;;13.02;38.30;98483.19;4460303;32;35151;-77
2021/12/10 08:46:25;;;;;;;;;;;;;;;13.21;37.74;98478.59;4477695;32;35311;-80
2021/12/10 08:48:52;;;;;;;;;;;;;;;13.23;37.80;98487.34;4458623;32;34554;-76
2021/12/10 08:51:21;;;;;;;;;;;;;;;12.78;39.08;98480.41;4471602;32;33571;-76
2021/12/10 08:53:49;;;;;;;;;;;;;;;11.56;41.55;98480.25;4462381;32;34138;-76
2021/12/10 08:56:17;;;;;;;;;;;;;;;11.62;41.47;98474.25;4462198;32;35069;-79
2021/12/10 08:58:44;;;;;;;;;;;;;;;11.73;41.13;98478.56;4475593;32;34875;-76
2021/12/10 09:01:13;;;;;;;;;;;;;;;11.45;42.20;98478.59;4462594;32;33768;-79
2021/12/10 09:03:45;;;;;;;;;;;;;;;11.87;41.39;98473.53;4472762;32;34181;-78
2021/12/10 09:06:14;;;;;;;;;;;;;;;12.65;39.97;98478.16;4477725;32;32065;-76
2021/12/10 09:08:41;;;;;;;;;;;;;;;12.70;39.88;98475.81;4475752;32;35022;-77
2021/12/10 09:11:10;;;;;;;;;;;;;;;12.58;39.82;98477.06;4469564;32;32508;-76
2021/12/10 09:13:37;;;;;;;;;;;;;;;12.41;40.32;98486.03;4461235;32;34188;-75
2021/12/10 09:16:06;;;;;;;;;;;;;;;12.71;39.54;98488.25;4473738;32;33214;-75
2021/12/10 09:18:34;;;;;;;;;;;;;;;12.71;39.62;98482.91;4481660;32;32642;-78
2021/12/10 09:21:02;;;;;;;;;;;;;;;12.85;39.27;98492.19;4462158;32;33334;-77
2021/12/10 09:23:29;;;;;;;;;;;;;;;13.27;37.71;98486.88;4476237;32;32986;-76
2021/12/10 09:25:57;;;;;;;;;;;;;;;13.19;38.03;98492.19;4479312;32;34346;-75
2021/12/10 09:28:25;;;;;;;;;;;;;;;13.35;37.74;98487.88;4462068;32;34208;-79
2021/12/10 09:30:53;;;;;;;;;;;;;;;13.34;37.55;98489.75;4457608;32;33618;-75
2021/12/10 09:33:21;;;;;;;;;;;;;;;12.35;40.13;98490.19;4478515;32;33630;-71
2021/12/10 09:35:49;;;;;;;;;;;;;;;12.59;39.47;98481.47;4477339;32;35342;-70
2021/12/10 09:38:19;;;;;;;;;;;;;;;12.81;39.50;98491.66;4474893;32;35117;-69
2021/12/10 09:40:47;;;;;;;;;;;;;;;12.86;39.44;98488.50;4459933;32;33736;-69
2021/12/10 09:43:15;;;;;;;;;;;;;;;12.96;39.28;98488.38;4476035;32;33852;-70
2021/12/10 09:45:44;;;;;;;;;;;;;;;13.38;38.39;98492.94;4471772;32;35319;-70
2021/12/10 09:48:12;;;;;;;;;;;;;;;13.19;38.56;98492.19;4478207;32;35388;-67
2021/12/10 09:50:54;;;;;;;;;;;;;;;12.38;39.87;98486.34;4475084;32;33516;-74
2021/12/10 09:53:22;;;;;;;;;;;;;;;12.69;39.87;98482.19;4476441;32;34207;-69
2021/12/10 09:55:49;;;;;;;;;;;;;;;12.77;39.58;98478.69;4472117;32;34359;-70
2021/12/10 09:58:17;;;;;;;;;;;;;;;12.58;39.62;98483.31;4460541;32;33460;-75
2021/12/10 10:00:55;;;;;;;;;;;;;;;13.25;38.90;98483.47;4474681;32;33678;-79
2021/12/10 10:03:26;;;;;;;;;;;;;;;13.25;38.13;98488.03;4459784;32;35236;-77
2021/12/10 10:05:54;;;;;;;;;;;;;;;10.58;43.91;98485.22;4475012;32;33210;-76
2021/12/10 10:08:22;;;;;;;;;;;;;;;11.92;40.86;98486.50;4466425;32;34096;-79
2021/12/10 10:10:51;;;;;;;;;;;;;;;11.77;41.07;98493.34;4473041;32;34090;-77
2021/12/10 10:13:20;;;;;;;;;;;;;;;11.93;41.41;98498.06;4451213;32;34129;-77
2021/12/10 10:15:48;;;;;;;;;;;;;;;12.24;40.34;98502.00;4480174;32;34324;-78
2021/12/10 10:18:16;;;;;;;;;;;;;;;12.06;40.25;98496.66;4458862;32;34430;-76
2021/12/10 10:20:46;;;;;;;;;;;;;;;12.24;40.71;98483.22;4476403;32;33680;-75
2021/12/10 10:23:14;;;;;;;;;;;;;;;12.54;39.55;98475.72;4469799;32;32601;-75
2021/12/10 10:25:43;;;;;;;;;;;;;;;12.29;40.11;98482.75;4456877;32;32768;-75
2021/12/10 10:28:11;;;;;;;;;;;;;;;11.89;40.62;98482.28;4464500;32;33925;-76
2021/12/10 10:30:42;;;;;;;;;;;;;;;12.04;40.23;98476.37;4461542;32;33696;-77
2021/12/10 10:33:10;;;;;;;;;;;;;;;11.79;39.48;98473.44;4460363;32;33876;-75
2021/12/10 10:35:43;;;;;;;;;;;;;;;11.36;40.72;98464.31;4458887;32;35611;-79
2021/12/10 10:38:11;;;;;;;;;;;;;;;11.91;40.34;98447.28;4471463;32;33042;-77
2021/12/10 10:40:41;;;;;;;;;;;;;;;12.06;40.40;98442.19;4456435;32;32463;-78
2021/12/10 10:43:08;;;;;;;;;;;;;;;12.03;40.34;98435.28;4476932;32;34946;-75
2021/12/10 10:45:37;;;;;;;;;;;;;;;11.67;41.35;98434.44;4473645;32;34297;-75
2021/12/10 10:48:05;;;;;;;;;;;;;;;12.16;40.05;98439.41;4477803;32;34528;-77
2021/12/10 10:50:35;;;;;;;;;;;;;;;12.21;40.05;98431.75;4477817;32;34436;-76
2021/12/10 10:53:22;;;;;;;;;;;;;;;11.64;42.00;98430.22;4463968;32;34182;-76
2021/12/10 10:55:50;;;;;;;;;;;;;;;11.85;41.40;98423.75;4458350;32;34131;-78
2021/12/10 10:58:18;;;;;;;;;;;;;;;12.16;41.59;98421.47;4458356;32;32890;-78
2021/12/10 11:00:58;;;;;;;;;;;;;;;11.58;42.36;98414.75;4459918;32;33592;-76
2021/12/10 11:03:58;;;;;;;;;;;;;;;11.57;42.59;98417.63;4472110;32;34268;-75
2021/12/10 11:06:33;;;;;;;;;;;;;;;11.80;42.49;98412.62;4472952;32;34443;-76
2021/12/10 11:09:07;;;;;;;;;;;;;;;10.76;44.99;98418.41;4463922;32;34375;-76
2021/12/10 11:11:35;;;;;;;;;;;;;;;11.57;42.93;98418.44;4478489;32;34240;-73
2021/12/10 11:14:05;;;;;;;;;;;;;;;11.61;42.81;98408.25;4464973;32;36172;-71
2021/12/10 11:16:34;;;;;;;;;;;;;;;11.97;42.19;98403.72;4482910;32;34328;-74
2021/12/10 11:19:07;;;;;;;;;;;;;;;9.71;46.57;98402.47;4482471;32;34548;-75
2021/12/10 11:21:40;;;;;;;;;;;;;;;10.96;44.49;98403.91;4448275;32;33625;-73
2021/12/10 11:24:10;;;;;;;;;;;;;;;9.34;47.17;98397.81;4465031;32;34287;-78
2021/12/10 11:26:45;;;;;;;;;;;;;;;10.63;44.79;98404.53;4474273;32;33088;-71
2021/12/10 11:29:31;;;;;;;;;;;;;;;10.67;45.06;98404.06;4470266;32;35074;-73
2021/12/10 11:32:00;;;;;;;;;;;;;;;8.22;49.92;98412.22;4469301;32;32172;-74
2021/12/10 11:34:46;;;;;;;;;;;;;;;9.83;47.32;98406.69;4468594;32;34198;-77
2021/12/10 11:37:14;;;;;;;;;;;;;;;10.63;45.78;98401.84;4476691;32;34354;-72
2021/12/10 11:39:42;;;;;;;;;;;;;;;9.85;46.86;98404.69;4462829;32;34663;-71
2021/12/10 11:42:28;;;;;;;;;;;;;;;10.00;46.82;98395.25;4468820;32;33273;-71
2021/12/10 11:45:17;;;;;;;;;;;;;;;11.16;44.40;98396.59;4473600;32;32998;-71
2021/12/10 11:47:45;;;;;;;;;;;;;;;10.27;46.15;98399.00;4474280;32;34011;-70
2021/12/10 11:50:17;;;;;;;;;;;;;;;10.03;46.78;98394.97;4474241;32;35254;-73
2021/12/10 11:52:44;;;;;;;;;;;;;;;9.91;46.68;98400.63;4473528;32;33334;-69
2021/12/10 11:55:12;;;;;;;;;;;;;;;10.01;46.98;98402.28;4453985;32;34323;-73
2021/12/10 11:57:40;;;;;;;;;;;;;;;9.30;48.61;98401.75;4476307;32;34459;-73
2021/12/10 12:00:15;;;;;;;;;;;;;;;8.73;50.93;98401.53;4449780;32;34467;-75
2021/12/10 12:02:57;;;;;;;;;;;;;;;9.58;48.35;98392.09;4453194;32;32935;-76
2021/12/10 12:05:25;;;;;;;;;;;;;;;9.00;49.67;98394.72;4479727;32;32841;-75
2021/12/10 12:07:56;;;;;;;;;;;;;;;8.01;52.38;98391.78;4464558;32;35986;-77
2021/12/10 12:10:27;;;;;;;;;;;;;;;9.43;49.03;98391.66;4461571;32;32718;-77
2021/12/10 12:13:30;;;;;;;;;;;;;;;9.59;48.57;98392.91;4454087;32;33340;-76
2021/12/10 12:15:57;;;;;;;;;;;;;;;8.37;51.97;98394.88;4471450;32;33871;-76
2021/12/10 12:18:35;;;;;;;;;;;;;;;7.61;54.69;98399.66;4473807;32;34116;-75
2021/12/10 12:26:42;;;;;;;;;;;;;;;10.36;47.39;98387.44;4453315;32;33479;-77
2021/12/10 12:29:33;;;;;;;;;;;;;;;10.38;45.77;98382.81;4459393;32;34951;-75
2021/12/10 12:32:02;;;;;;;;;;;;;;;8.99;49.70;98379.66;4456167;32;33932;-77
2021/12/10 12:34:30;;;;;;;;;;;;;;;9.82;48.28;98382.75;4455829;32;32007;-74
2021/12/10 12:37:06;;;;;;;;;;;;;;;11.02;45.01;98372.19;4470513;32;32931;-76
2021/12/10 12:39:55;;;;;;;;;;;;;;;10.26;46.29;98376.78;4469470;32;34015;-74
2021/12/10 12:42:25;;;;;;;;;;;;;;;10.20;46.40;98374.66;4477012;32;34293;-73
2021/12/10 12:44:58;;;;;;;;;;;;;;;10.45;45.29;98364.31;4454326;32;33222;-73
2021/12/10 12:47:48;;;;;;;;;;;;;;;10.60;45.51;98364.69;4470194;32;33446;-74
2021/12/10 12:50:36;;;;;;;;;;;;;;;11.93;42.34;98354.09;4469353;32;33922;-73
2021/12/10 12:53:13;;;;;;;;;;;;;;;12.33;41.14;98358.06;4459993;32;34338;-73
2021/12/10 12:55:49;;;;;;;;;;;;;;;11.07;43.49;98357.34;4475927;32;34605;-74
2021/12/10 12:58:30;;;;;;;;;;;;;;;11.79;41.92;98350.13;4469182;32;34420;-74
2021/12/10 13:01:19;;;;;;;;;;;;;;;12.24;40.47;98351.78;4460235;32;32964;-73
2021/12/10 13:03:50;;;;;;;;;;;;;;;12.66;40.20;98348.28;4474869;32;34256;-75
2021/12/10 13:06:45;;;;;;;;;;;;;;;12.27;40.57;98351.47;4466931;32;33187;-75
2021/12/10 13:09:15;;;;;;;;;;;;;;;12.26;41.47;98338.19;4472050;32;36240;-75
2021/12/10 13:11:56;;;;;;;;;;;;;;;12.11;41.38;98343.34;4454232;32;33405;-78
2021/12/10 13:14:31;;;;;;;;;;;;;;;12.14;41.04;98344.88;4465377;32;34467;-79
2021/12/10 13:17:00;;;;;;;;;;;;;;;11.94;40.83;98339.72;4456755;32;33507;-79